sensor_id;sensor_type;location;lat;lon;timestamp;P1;durP1;ratioP1;P2;durP2;ratioP2
75230;SDS011;63814;50.118;8.714;2022-11-12T00:00:53;26.10;;;15.97;;
75230;SDS011;63814;50.118;8.714;2022-11-12T00:03:20;25.80;;;15.03;;
75230;SDS011;63814;50.118;8.714;2022-11-12T00:05:46;29.97;;;15.57;;
75230;SDS011;63814;50.118;8.714;2022-11-12T00:08:16;22.20;;;15.07;;
75230;SDS011;63814;50.118;8.714;2022-11-12T00:10:43;19.80;;;13.87;;
75230;SDS011;63814;50.118;8.714;2022-11-12T00:13:10;21.93;;;14.13;;
75230;SDS011;63814;50.118;8.714;2022-11-12T00:15:36;16.30;;;11.60;;
75230;SDS011;63814;50.118;8.714;2022-11-12T00:18:03;20.17;;;13.40;;
75230;SDS011;63814;50.118;8.714;2022-11-12T00:20:31;20.30;;;13.27;;
75230;SDS011;63814;50.118;8.714;2022-11-12T00:22:58;18.83;;;13.30;;
75230;SDS011;63814;50.118;8.714;2022-11-12T00:25:26;24.67;;;15.70;;
75230;SDS011;63814;50.118;8.714;2022-11-12T00:27:52;21.80;;;15.50;;
75230;SDS011;63814;50.118;8.714;2022-11-12T00:30:19;26.07;;;16.00;;
75230;SDS011;63814;50.118;8.714;2022-11-12T00:32:45;38.20;;;17.73;;
75230;SDS011;63814;50.118;8.714;2022-11-12T00:35:12;25.40;;;15.93;;
75230;SDS011;63814;50.118;8.714;2022-11-12T00:37:38;27.23;;;16.77;;
75230;SDS011;63814;50.118;8.714;2022-11-12T00:40:05;29.87;;;17.57;;
75230;SDS011;63814;50.118;8.714;2022-11-12T00:42:34;27.70;;;17.80;;
75230;SDS011;63814;50.118;8.714;2022-11-12T00:45:00;32.87;;;18.47;;
75230;SDS011;63814;50.118;8.714;2022-11-12T00:47:27;28.57;;;17.40;;
75230;SDS011;63814;50.118;8.714;2022-11-12T00:49:53;29.43;;;18.23;;
75230;SDS011;63814;50.118;8.714;2022-11-12T00:52:20;31.80;;;17.47;;
75230;SDS011;63814;50.118;8.714;2022-11-12T00:54:47;27.13;;;15.60;;
75230;SDS011;63814;50.118;8.714;2022-11-12T00:57:14;28.87;;;16.87;;
75230;SDS011;63814;50.118;8.714;2022-11-12T00:59:41;25.37;;;16.57;;
75230;SDS011;63814;50.118;8.714;2022-11-12T01:02:08;24.90;;;15.63;;
75230;SDS011;63814;50.118;8.714;2022-11-12T01:04:34;28.90;;;17.67;;
75230;SDS011;63814;50.118;8.714;2022-11-12T01:07:01;23.93;;;14.40;;
75230;SDS011;63814;50.118;8.714;2022-11-12T01:09:27;27.00;;;16.00;;
75230;SDS011;63814;50.118;8.714;2022-11-12T01:11:54;26.07;;;16.67;;
75230;SDS011;63814;50.118;8.714;2022-11-12T01:14:20;28.93;;;17.93;;
75230;SDS011;63814;50.118;8.714;2022-11-12T01:16:48;22.63;;;14.50;;
75230;SDS011;63814;50.118;8.714;2022-11-12T01:19:14;24.33;;;15.67;;
75230;SDS011;63814;50.118;8.714;2022-11-12T01:21:42;24.23;;;15.40;;
75230;SDS011;63814;50.118;8.714;2022-11-12T01:24:09;26.13;;;16.17;;
75230;SDS011;63814;50.118;8.714;2022-11-12T01:26:36;22.93;;;14.83;;
75230;SDS011;63814;50.118;8.714;2022-11-12T01:29:03;27.43;;;16.43;;
75230;SDS011;63814;50.118;8.714;2022-11-12T01:31:31;24.60;;;16.93;;
75230;SDS011;63814;50.118;8.714;2022-11-12T01:34:01;31.33;;;17.37;;
75230;SDS011;63814;50.118;8.714;2022-11-12T01:36:34;24.87;;;15.63;;
75230;SDS011;63814;50.118;8.714;2022-11-12T01:39:02;24.33;;;15.03;;
75230;SDS011;63814;50.118;8.714;2022-11-12T01:41:31;25.47;;;16.77;;
75230;SDS011;63814;50.118;8.714;2022-11-12T01:44:06;26.90;;;17.00;;
75230;SDS011;63814;50.118;8.714;2022-11-12T01:46:34;26.30;;;15.50;;
75230;SDS011;63814;50.118;8.714;2022-11-12T01:49:07;40.50;;;18.57;;
75230;SDS011;63814;50.118;8.714;2022-11-12T01:51:41;27.73;;;16.13;;
75230;SDS011;63814;50.118;8.714;2022-11-12T01:54:12;29.80;;;18.33;;
75230;SDS011;63814;50.118;8.714;2022-11-12T01:56:42;27.07;;;17.30;;
75230;SDS011;63814;50.118;8.714;2022-11-12T01:59:10;24.13;;;15.23;;
75230;SDS011;63814;50.118;8.714;2022-11-12T02:01:39;24.60;;;16.83;;
75230;SDS011;63814;50.118;8.714;2022-11-12T02:04:07;38.20;;;18.97;;
75230;SDS011;63814;50.118;8.714;2022-11-12T02:06:34;28.10;;;18.63;;
75230;SDS011;63814;50.118;8.714;2022-11-12T02:09:02;29.93;;;15.37;;
75230;SDS011;63814;50.118;8.714;2022-11-12T02:11:29;29.93;;;18.50;;
75230;SDS011;63814;50.118;8.714;2022-11-12T02:13:55;30.43;;;19.47;;
75230;SDS011;63814;50.118;8.714;2022-11-12T02:16:26;34.10;;;19.90;;
75230;SDS011;63814;50.118;8.714;2022-11-12T02:18:55;30.90;;;19.07;;
75230;SDS011;63814;50.118;8.714;2022-11-12T02:21:23;30.33;;;18.40;;
75230;SDS011;63814;50.118;8.714;2022-11-12T02:24:00;28.47;;;18.57;;
75230;SDS011;63814;50.118;8.714;2022-11-12T02:26:30;34.80;;;21.57;;
75230;SDS011;63814;50.118;8.714;2022-11-12T02:28:59;31.20;;;18.87;;
75230;SDS011;63814;50.118;8.714;2022-11-12T02:31:26;34.40;;;20.73;;
75230;SDS011;63814;50.118;8.714;2022-11-12T02:33:53;30.13;;;18.43;;
75230;SDS011;63814;50.118;8.714;2022-11-12T02:36:19;33.10;;;20.23;;
75230;SDS011;63814;50.118;8.714;2022-11-12T02:38:48;34.23;;;20.70;;
75230;SDS011;63814;50.118;8.714;2022-11-12T02:41:14;36.97;;;21.03;;
75230;SDS011;63814;50.118;8.714;2022-11-12T02:43:41;37.33;;;22.13;;
75230;SDS011;63814;50.118;8.714;2022-11-12T02:46:08;31.27;;;19.73;;
75230;SDS011;63814;50.118;8.714;2022-11-12T02:48:34;35.90;;;21.97;;
75230;SDS011;63814;50.118;8.714;2022-11-12T02:51:01;33.23;;;19.63;;
75230;SDS011;63814;50.118;8.714;2022-11-12T02:53:27;28.70;;;19.00;;
75230;SDS011;63814;50.118;8.714;2022-11-12T02:55:57;26.33;;;18.17;;
75230;SDS011;63814;50.118;8.714;2022-11-12T02:58:24;26.73;;;16.90;;
75230;SDS011;63814;50.118;8.714;2022-11-12T03:00:51;29.87;;;18.97;;
75230;SDS011;63814;50.118;8.714;2022-11-12T03:03:18;29.17;;;18.57;;
75230;SDS011;63814;50.118;8.714;2022-11-12T03:05:45;30.80;;;19.07;;
75230;SDS011;63814;50.118;8.714;2022-11-12T03:08:20;30.47;;;18.77;;
75230;SDS011;63814;50.118;8.714;2022-11-12T03:10:46;29.90;;;16.77;;
75230;SDS011;63814;50.118;8.714;2022-11-12T03:13:14;30.13;;;19.07;;
75230;SDS011;63814;50.118;8.714;2022-11-12T03:15:40;32.07;;;18.27;;
75230;SDS011;63814;50.118;8.714;2022-11-12T03:18:07;29.30;;;17.97;;
75230;SDS011;63814;50.118;8.714;2022-11-12T03:20:33;24.97;;;15.87;;
75230;SDS011;63814;50.118;8.714;2022-11-12T03:23:00;26.33;;;17.53;;
75230;SDS011;63814;50.118;8.714;2022-11-12T03:25:28;27.47;;;16.70;;
75230;SDS011;63814;50.118;8.714;2022-11-12T03:27:56;26.33;;;17.17;;
75230;SDS011;63814;50.118;8.714;2022-11-12T03:30:25;23.73;;;16.53;;
75230;SDS011;63814;50.118;8.714;2022-11-12T03:32:52;22.80;;;16.20;;
75230;SDS011;63814;50.118;8.714;2022-11-12T03:35:19;25.50;;;17.13;;
75230;SDS011;63814;50.118;8.714;2022-11-12T03:37:45;22.27;;;16.10;;
75230;SDS011;63814;50.118;8.714;2022-11-12T03:40:12;19.93;;;15.07;;
75230;SDS011;63814;50.118;8.714;2022-11-12T03:42:43;20.23;;;15.00;;
75230;SDS011;63814;50.118;8.714;2022-11-12T03:45:10;18.10;;;14.30;;
75230;SDS011;63814;50.118;8.714;2022-11-12T03:47:40;19.77;;;15.10;;
75230;SDS011;63814;50.118;8.714;2022-11-12T03:50:07;17.50;;;13.07;;
75230;SDS011;63814;50.118;8.714;2022-11-12T03:52:35;21.50;;;15.80;;
75230;SDS011;63814;50.118;8.714;2022-11-12T03:55:01;19.67;;;14.00;;
75230;SDS011;63814;50.118;8.714;2022-11-12T03:57:28;19.00;;;14.77;;
75230;SDS011;63814;50.118;8.714;2022-11-12T03:59:55;21.83;;;16.30;;
75230;SDS011;63814;50.118;8.714;2022-11-12T04:02:21;19.83;;;14.43;;
75230;SDS011;63814;50.118;8.714;2022-11-12T04:04:51;20.83;;;14.80;;
75230;SDS011;63814;50.118;8.714;2022-11-12T04:07:35;21.80;;;15.97;;
75230;SDS011;63814;50.118;8.714;2022-11-12T04:10:19;25.07;;;16.60;;
75230;SDS011;63814;50.118;8.714;2022-11-12T04:12:45;30.63;;;18.23;;
75230;SDS011;63814;50.118;8.714;2022-11-12T04:15:29;33.47;;;19.70;;
75230;SDS011;63814;50.118;8.714;2022-11-12T04:17:56;34.47;;;20.77;;
75230;SDS011;63814;50.118;8.714;2022-11-12T04:20:53;33.80;;;19.73;;
75230;SDS011;63814;50.118;8.714;2022-11-12T04:23:38;31.43;;;18.37;;
75230;SDS011;63814;50.118;8.714;2022-11-12T04:26:05;35.67;;;19.00;;
75230;SDS011;63814;50.118;8.714;2022-11-12T04:28:54;37.73;;;22.30;;
75230;SDS011;63814;50.118;8.714;2022-11-12T04:31:39;43.57;;;23.47;;
75230;SDS011;63814;50.118;8.714;2022-11-12T04:34:05;40.00;;;22.77;;
75230;SDS011;63814;50.118;8.714;2022-11-12T04:36:47;31.43;;;19.77;;
75230;SDS011;63814;50.118;8.714;2022-11-12T04:39:13;27.67;;;17.20;;
75230;SDS011;63814;50.118;8.714;2022-11-12T04:41:40;23.00;;;15.73;;
75230;SDS011;63814;50.118;8.714;2022-11-12T04:44:24;20.70;;;13.67;;
75230;SDS011;63814;50.118;8.714;2022-11-12T04:47:08;17.80;;;13.50;;
75230;SDS011;63814;50.118;8.714;2022-11-12T04:49:34;18.77;;;14.23;;
75230;SDS011;63814;50.118;8.714;2022-11-12T04:52:02;18.53;;;14.73;;
75230;SDS011;63814;50.118;8.714;2022-11-12T04:54:32;18.73;;;13.90;;
75230;SDS011;63814;50.118;8.714;2022-11-12T04:56:59;17.47;;;12.30;;
75230;SDS011;63814;50.118;8.714;2022-11-12T04:59:25;16.77;;;13.00;;
75230;SDS011;63814;50.118;8.714;2022-11-12T05:01:52;17.17;;;12.97;;
75230;SDS011;63814;50.118;8.714;2022-11-12T05:04:18;15.27;;;12.70;;
75230;SDS011;63814;50.118;8.714;2022-11-12T05:06:45;18.93;;;13.30;;
75230;SDS011;63814;50.118;8.714;2022-11-12T05:09:20;16.00;;;13.17;;
75230;SDS011;63814;50.118;8.714;2022-11-12T05:11:48;14.17;;;10.93;;
75230;SDS011;63814;50.118;8.714;2022-11-12T05:14:14;15.47;;;11.70;;
75230;SDS011;63814;50.118;8.714;2022-11-12T05:16:41;15.80;;;12.40;;
75230;SDS011;63814;50.118;8.714;2022-11-12T05:19:08;13.20;;;10.70;;
75230;SDS011;63814;50.118;8.714;2022-11-12T05:21:35;16.77;;;12.50;;
75230;SDS011;63814;50.118;8.714;2022-11-12T05:24:21;13.60;;;11.80;;
75230;SDS011;63814;50.118;8.714;2022-11-12T05:26:47;18.33;;;12.90;;
75230;SDS011;63814;50.118;8.714;2022-11-12T05:29:14;15.53;;;12.30;;
75230;SDS011;63814;50.118;8.714;2022-11-12T05:31:40;18.57;;;12.60;;
75230;SDS011;63814;50.118;8.714;2022-11-12T05:34:07;14.83;;;12.53;;
75230;SDS011;63814;50.118;8.714;2022-11-12T05:36:33;13.33;;;11.43;;
75230;SDS011;63814;50.118;8.714;2022-11-12T05:39:00;14.97;;;11.73;;
75230;SDS011;63814;50.118;8.714;2022-11-12T05:41:28;14.07;;;12.20;;
75230;SDS011;63814;50.118;8.714;2022-11-12T05:43:54;15.57;;;12.80;;
75230;SDS011;63814;50.118;8.714;2022-11-12T05:46:21;15.73;;;13.23;;
75230;SDS011;63814;50.118;8.714;2022-11-12T05:48:47;15.27;;;11.60;;
75230;SDS011;63814;50.118;8.714;2022-11-12T05:51:14;15.60;;;12.53;;
75230;SDS011;63814;50.118;8.714;2022-11-12T05:53:40;17.17;;;13.10;;
75230;SDS011;63814;50.118;8.714;2022-11-12T05:56:08;17.37;;;13.40;;
75230;SDS011;63814;50.118;8.714;2022-11-12T05:58:36;13.97;;;12.27;;
75230;SDS011;63814;50.118;8.714;2022-11-12T06:01:03;14.10;;;11.30;;
75230;SDS011;63814;50.118;8.714;2022-11-12T06:03:30;18.00;;;12.40;;
75230;SDS011;63814;50.118;8.714;2022-11-12T06:05:56;15.90;;;12.90;;
75230;SDS011;63814;50.118;8.714;2022-11-12T06:08:23;16.30;;;12.53;;
75230;SDS011;63814;50.118;8.714;2022-11-12T06:10:50;13.93;;;11.53;;
75230;SDS011;63814;50.118;8.714;2022-11-12T06:13:17;13.60;;;11.80;;
75230;SDS011;63814;50.118;8.714;2022-11-12T06:15:45;17.43;;;12.87;;
75230;SDS011;63814;50.118;8.714;2022-11-12T06:18:12;15.20;;;12.00;;
75230;SDS011;63814;50.118;8.714;2022-11-12T06:20:38;14.67;;;11.90;;
75230;SDS011;63814;50.118;8.714;2022-11-12T06:23:05;12.37;;;11.07;;
75230;SDS011;63814;50.118;8.714;2022-11-12T06:25:31;11.83;;;9.77;;
75230;SDS011;63814;50.118;8.714;2022-11-12T06:27:58;11.10;;;9.53;;
75230;SDS011;63814;50.118;8.714;2022-11-12T06:30:24;13.83;;;10.97;;
75230;SDS011;63814;50.118;8.714;2022-11-12T06:32:52;15.40;;;10.93;;
75230;SDS011;63814;50.118;8.714;2022-11-12T06:35:19;13.10;;;10.20;;
75230;SDS011;63814;50.118;8.714;2022-11-12T06:37:45;12.53;;;9.93;;
75230;SDS011;63814;50.118;8.714;2022-11-12T06:40:12;11.83;;;10.13;;
75230;SDS011;63814;50.118;8.714;2022-11-12T06:42:38;11.83;;;10.23;;
75230;SDS011;63814;50.118;8.714;2022-11-12T06:45:05;12.37;;;10.47;;
75230;SDS011;63814;50.118;8.714;2022-11-12T06:47:32;13.50;;;10.87;;
75230;SDS011;63814;50.118;8.714;2022-11-12T06:50:00;12.07;;;10.73;;
75230;SDS011;63814;50.118;8.714;2022-11-12T06:52:27;13.30;;;11.30;;
75230;SDS011;63814;50.118;8.714;2022-11-12T06:54:53;11.97;;;10.40;;
75230;SDS011;63814;50.118;8.714;2022-11-12T06:57:20;13.03;;;10.87;;
75230;SDS011;63814;50.118;8.714;2022-11-12T06:59:46;13.97;;;11.23;;
75230;SDS011;63814;50.118;8.714;2022-11-12T07:02:13;15.43;;;11.40;;
75230;SDS011;63814;50.118;8.714;2022-11-12T07:04:39;11.50;;;10.30;;
75230;SDS011;63814;50.118;8.714;2022-11-12T07:07:07;12.37;;;8.80;;
75230;SDS011;63814;50.118;8.714;2022-11-12T07:09:34;10.83;;;9.33;;
75230;SDS011;63814;50.118;8.714;2022-11-12T07:12:00;11.90;;;9.93;;
75230;SDS011;63814;50.118;8.714;2022-11-12T07:14:27;13.37;;;10.23;;
75230;SDS011;63814;50.118;8.714;2022-11-12T07:16:53;13.23;;;9.90;;
75230;SDS011;63814;50.118;8.714;2022-11-12T07:19:19;13.87;;;10.20;;
75230;SDS011;63814;50.118;8.714;2022-11-12T07:21:46;11.60;;;9.30;;
75230;SDS011;63814;50.118;8.714;2022-11-12T07:24:14;13.90;;;11.23;;
75230;SDS011;63814;50.118;8.714;2022-11-12T07:26:40;10.60;;;8.87;;
75230;SDS011;63814;50.118;8.714;2022-11-12T07:29:07;13.07;;;10.43;;
75230;SDS011;63814;50.118;8.714;2022-11-12T07:31:33;13.30;;;11.30;;
75230;SDS011;63814;50.118;8.714;2022-11-12T07:34:00;15.97;;;12.23;;
75230;SDS011;63814;50.118;8.714;2022-11-12T07:36:27;14.63;;;10.93;;
75230;SDS011;63814;50.118;8.714;2022-11-12T07:38:53;12.00;;;9.70;;
75230;SDS011;63814;50.118;8.714;2022-11-12T07:41:21;12.00;;;9.63;;
75230;SDS011;63814;50.118;8.714;2022-11-12T07:43:49;10.77;;;9.50;;
75230;SDS011;63814;50.118;8.714;2022-11-12T07:46:18;13.50;;;11.37;;
75230;SDS011;63814;50.118;8.714;2022-11-12T07:48:46;13.77;;;10.93;;
75230;SDS011;63814;50.118;8.714;2022-11-12T07:51:13;15.80;;;11.57;;
75230;SDS011;63814;50.118;8.714;2022-11-12T07:53:41;12.10;;;10.43;;
75230;SDS011;63814;50.118;8.714;2022-11-12T07:56:09;11.33;;;9.83;;
75230;SDS011;63814;50.118;8.714;2022-11-12T07:58:38;11.93;;;9.93;;
75230;SDS011;63814;50.118;8.714;2022-11-12T08:01:08;12.83;;;11.10;;
75230;SDS011;63814;50.118;8.714;2022-11-12T08:03:36;12.70;;;10.90;;
75230;SDS011;63814;50.118;8.714;2022-11-12T08:06:02;13.37;;;10.97;;
75230;SDS011;63814;50.118;8.714;2022-11-12T08:08:29;15.03;;;11.90;;
75230;SDS011;63814;50.118;8.714;2022-11-12T08:10:56;17.30;;;12.83;;
75230;SDS011;63814;50.118;8.714;2022-11-12T08:13:24;15.47;;;12.33;;
75230;SDS011;63814;50.118;8.714;2022-11-12T08:15:52;18.30;;;12.33;;
75230;SDS011;63814;50.118;8.714;2022-11-12T08:18:22;13.60;;;11.13;;
75230;SDS011;63814;50.118;8.714;2022-11-12T08:20:48;15.00;;;12.00;;
75230;SDS011;63814;50.118;8.714;2022-11-12T08:23:15;17.50;;;13.10;;
75230;SDS011;63814;50.118;8.714;2022-11-12T08:25:41;19.27;;;14.40;;
75230;SDS011;63814;50.118;8.714;2022-11-12T08:28:08;20.87;;;14.93;;
75230;SDS011;63814;50.118;8.714;2022-11-12T08:30:35;17.83;;;13.93;;
75230;SDS011;63814;50.118;8.714;2022-11-12T08:33:03;14.17;;;11.03;;
75230;SDS011;63814;50.118;8.714;2022-11-12T08:35:31;16.17;;;11.30;;
75230;SDS011;63814;50.118;8.714;2022-11-12T08:37:58;15.53;;;12.10;;
75230;SDS011;63814;50.118;8.714;2022-11-12T08:40:25;16.60;;;13.10;;
75230;SDS011;63814;50.118;8.714;2022-11-12T08:42:56;16.37;;;12.43;;
75230;SDS011;63814;50.118;8.714;2022-11-12T08:45:23;15.23;;;12.67;;
75230;SDS011;63814;50.118;8.714;2022-11-12T08:47:50;14.40;;;11.60;;
75230;SDS011;63814;50.118;8.714;2022-11-12T08:50:18;14.13;;;12.40;;
75230;SDS011;63814;50.118;8.714;2022-11-12T08:52:44;15.20;;;11.40;;
75230;SDS011;63814;50.118;8.714;2022-11-12T08:55:11;13.30;;;11.53;;
75230;SDS011;63814;50.118;8.714;2022-11-12T08:57:38;13.37;;;11.03;;
75230;SDS011;63814;50.118;8.714;2022-11-12T09:00:06;12.53;;;10.37;;
75230;SDS011;63814;50.118;8.714;2022-11-12T09:02:34;11.77;;;10.57;;
75230;SDS011;63814;50.118;8.714;2022-11-12T09:05:00;11.87;;;10.63;;
75230;SDS011;63814;50.118;8.714;2022-11-12T09:07:28;15.40;;;12.53;;
75230;SDS011;63814;50.118;8.714;2022-11-12T09:09:54;13.73;;;12.00;;
75230;SDS011;63814;50.118;8.714;2022-11-12T09:12:21;14.83;;;12.27;;
75230;SDS011;63814;50.118;8.714;2022-11-12T09:14:47;14.80;;;12.80;;
75230;SDS011;63814;50.118;8.714;2022-11-12T09:17:14;14.23;;;10.80;;
75230;SDS011;63814;50.118;8.714;2022-11-12T09:19:40;13.70;;;12.23;;
75230;SDS011;63814;50.118;8.714;2022-11-12T09:22:07;19.37;;;14.93;;
75230;SDS011;63814;50.118;8.714;2022-11-12T09:24:35;15.23;;;12.33;;
75230;SDS011;63814;50.118;8.714;2022-11-12T09:27:02;13.43;;;11.77;;
75230;SDS011;63814;50.118;8.714;2022-11-12T09:29:28;15.60;;;13.03;;
75230;SDS011;63814;50.118;8.714;2022-11-12T09:31:55;14.33;;;12.83;;
75230;SDS011;63814;50.118;8.714;2022-11-12T09:34:23;16.20;;;12.60;;
75230;SDS011;63814;50.118;8.714;2022-11-12T09:36:50;17.47;;;12.97;;
75230;SDS011;63814;50.118;8.714;2022-11-12T09:39:16;13.37;;;11.97;;
75230;SDS011;63814;50.118;8.714;2022-11-12T09:41:44;12.20;;;10.70;;
75230;SDS011;63814;50.118;8.714;2022-11-12T09:44:11;14.93;;;12.13;;
75230;SDS011;63814;50.118;8.714;2022-11-12T09:46:42;14.47;;;12.23;;
75230;SDS011;63814;50.118;8.714;2022-11-12T09:49:13;15.80;;;12.83;;
75230;SDS011;63814;50.118;8.714;2022-11-12T09:51:45;19.93;;;14.53;;
75230;SDS011;63814;50.118;8.714;2022-11-12T09:54:20;16.37;;;13.67;;
75230;SDS011;63814;50.118;8.714;2022-11-12T09:56:50;18.93;;;13.50;;
75230;SDS011;63814;50.118;8.714;2022-11-12T09:59:18;17.73;;;15.20;;
75230;SDS011;63814;50.118;8.714;2022-11-12T10:01:48;16.13;;;14.07;;
75230;SDS011;63814;50.118;8.714;2022-11-12T10:04:30;15.90;;;13.97;;
75230;SDS011;63814;50.118;8.714;2022-11-12T10:07:08;21.50;;;15.40;;
75230;SDS011;63814;50.118;8.714;2022-11-12T10:09:43;16.57;;;13.37;;
75230;SDS011;63814;50.118;8.714;2022-11-12T10:12:22;22.20;;;16.37;;
75230;SDS011;63814;50.118;8.714;2022-11-12T10:15:02;20.73;;;17.03;;
75230;SDS011;63814;50.118;8.714;2022-11-12T10:18:01;24.77;;;19.27;;
75230;SDS011;63814;50.118;8.714;2022-11-12T10:20:35;19.40;;;15.80;;
75230;SDS011;63814;50.118;8.714;2022-11-12T10:23:11;19.17;;;16.10;;
75230;SDS011;63814;50.118;8.714;2022-11-12T10:25:43;22.63;;;18.87;;
75230;SDS011;63814;50.118;8.714;2022-11-12T10:28:15;21.87;;;16.57;;
75230;SDS011;63814;50.118;8.714;2022-11-12T10:30:49;20.00;;;16.43;;
75230;SDS011;63814;50.118;8.714;2022-11-12T10:33:17;22.80;;;18.40;;
75230;SDS011;63814;50.118;8.714;2022-11-12T10:35:43;20.37;;;17.03;;
75230;SDS011;63814;50.118;8.714;2022-11-12T10:38:11;20.93;;;16.93;;
75230;SDS011;63814;50.118;8.714;2022-11-12T10:40:41;21.43;;;17.53;;
75230;SDS011;63814;50.118;8.714;2022-11-12T10:43:20;21.73;;;17.90;;
75230;SDS011;63814;50.118;8.714;2022-11-12T10:45:49;19.53;;;16.33;;
75230;SDS011;63814;50.118;8.714;2022-11-12T10:48:19;22.50;;;18.43;;
75230;SDS011;63814;50.118;8.714;2022-11-12T10:50:47;17.90;;;14.50;;
75230;SDS011;63814;50.118;8.714;2022-11-12T10:53:14;17.83;;;15.93;;
75230;SDS011;63814;50.118;8.714;2022-11-12T10:55:57;19.60;;;16.27;;
75230;SDS011;63814;50.118;8.714;2022-11-12T10:58:25;17.73;;;13.87;;
75230;SDS011;63814;50.118;8.714;2022-11-12T11:00:59;18.50;;;16.43;;
75230;SDS011;63814;50.118;8.714;2022-11-12T11:03:28;17.13;;;15.10;;
75230;SDS011;63814;50.118;8.714;2022-11-12T11:05:59;19.07;;;17.03;;
75230;SDS011;63814;50.118;8.714;2022-11-12T11:08:30;18.00;;;15.93;;
75230;SDS011;63814;50.118;8.714;2022-11-12T11:11:09;19.07;;;16.73;;
75230;SDS011;63814;50.118;8.714;2022-11-12T11:13:43;19.33;;;16.60;;
75230;SDS011;63814;50.118;8.714;2022-11-12T11:16:11;19.83;;;16.90;;
75230;SDS011;63814;50.118;8.714;2022-11-12T11:18:40;19.87;;;17.40;;
75230;SDS011;63814;50.118;8.714;2022-11-12T11:21:14;26.70;;;21.93;;
75230;SDS011;63814;50.118;8.714;2022-11-12T11:23:49;19.03;;;16.37;;
75230;SDS011;63814;50.118;8.714;2022-11-12T11:26:24;17.87;;;16.03;;
75230;SDS011;63814;50.118;8.714;2022-11-12T11:29:00;18.30;;;15.87;;
75230;SDS011;63814;50.118;8.714;2022-11-12T11:31:41;21.47;;;16.60;;
75230;SDS011;63814;50.118;8.714;2022-11-12T11:34:17;17.40;;;15.50;;
75230;SDS011;63814;50.118;8.714;2022-11-12T11:36:52;17.67;;;15.80;;
75230;SDS011;63814;50.118;8.714;2022-11-12T11:39:24;18.93;;;16.93;;
75230;SDS011;63814;50.118;8.714;2022-11-12T11:42:04;18.80;;;16.83;;
75230;SDS011;63814;50.118;8.714;2022-11-12T11:44:42;18.73;;;16.73;;
75230;SDS011;63814;50.118;8.714;2022-11-12T11:47:19;17.13;;;15.37;;
75230;SDS011;63814;50.118;8.714;2022-11-12T11:49:58;17.13;;;15.33;;
75230;SDS011;63814;50.118;8.714;2022-11-12T11:52:38;17.83;;;15.80;;
75230;SDS011;63814;50.118;8.714;2022-11-12T11:55:21;18.07;;;16.17;;
75230;SDS011;63814;50.118;8.714;2022-11-12T11:57:56;16.43;;;14.50;;
75230;SDS011;63814;50.118;8.714;2022-11-12T12:00:36;17.80;;;15.90;;
75230;SDS011;63814;50.118;8.714;2022-11-12T12:03:17;17.50;;;15.60;;
75230;SDS011;63814;50.118;8.714;2022-11-12T12:05:49;20.97;;;16.80;;
75230;SDS011;63814;50.118;8.714;2022-11-12T12:08:30;17.40;;;15.70;;
75230;SDS011;63814;50.118;8.714;2022-11-12T12:11:08;17.90;;;16.10;;
75230;SDS011;63814;50.118;8.714;2022-11-12T12:13:44;15.83;;;14.13;;
75230;SDS011;63814;50.118;8.714;2022-11-12T12:16:30;19.77;;;17.67;;
75230;SDS011;63814;50.118;8.714;2022-11-12T12:19:10;19.83;;;17.77;;
75230;SDS011;63814;50.118;8.714;2022-11-12T12:21:47;20.63;;;18.43;;
75230;SDS011;63814;50.118;8.714;2022-11-12T12:24:17;19.93;;;17.67;;
75230;SDS011;63814;50.118;8.714;2022-11-12T12:26:47;17.50;;;15.50;;
75230;SDS011;63814;50.118;8.714;2022-11-12T12:29:17;20.23;;;18.17;;
75230;SDS011;63814;50.118;8.714;2022-11-12T12:31:50;21.60;;;16.83;;
75230;SDS011;63814;50.118;8.714;2022-11-12T12:34:21;18.13;;;15.87;;
75230;SDS011;63814;50.118;8.714;2022-11-12T12:36:53;19.17;;;17.17;;
75230;SDS011;63814;50.118;8.714;2022-11-12T12:39:29;17.93;;;16.03;;
75230;SDS011;63814;50.118;8.714;2022-11-12T12:42:04;21.13;;;17.30;;
75230;SDS011;63814;50.118;8.714;2022-11-12T12:44:40;18.70;;;16.10;;
75230;SDS011;63814;50.118;8.714;2022-11-12T12:47:28;27.03;;;22.20;;
75230;SDS011;63814;50.118;8.714;2022-11-12T12:49:59;28.37;;;22.93;;
75230;SDS011;63814;50.118;8.714;2022-11-12T12:52:28;20.70;;;18.60;;
75230;SDS011;63814;50.118;8.714;2022-11-12T12:54:55;21.33;;;19.27;;
75230;SDS011;63814;50.118;8.714;2022-11-12T12:57:29;20.07;;;18.07;;
75230;SDS011;63814;50.118;8.714;2022-11-12T13:02:54;20.17;;;18.17;;
75230;SDS011;63814;50.118;8.714;2022-11-12T13:05:21;21.63;;;19.53;;
75230;SDS011;63814;50.118;8.714;2022-11-12T13:07:49;20.17;;;18.17;;
75230;SDS011;63814;50.118;8.714;2022-11-12T13:13:22;17.93;;;16.13;;
75230;SDS011;63814;50.118;8.714;2022-11-12T13:15:52;17.83;;;15.97;;
75230;SDS011;63814;50.118;8.714;2022-11-12T13:21:36;17.03;;;15.37;;
75230;SDS011;63814;50.118;8.714;2022-11-12T13:24:07;18.17;;;16.20;;
75230;SDS011;63814;50.118;8.714;2022-11-12T13:26:40;17.47;;;15.60;;
75230;SDS011;63814;50.118;8.714;2022-11-12T13:29:22;18.17;;;16.37;;
75230;SDS011;63814;50.118;8.714;2022-11-12T13:37:52;16.40;;;14.63;;
75230;SDS011;63814;50.118;8.714;2022-11-12T13:40:24;15.97;;;14.37;;
75230;SDS011;63814;50.118;8.714;2022-11-12T13:43:02;15.87;;;14.27;;
75230;SDS011;63814;50.118;8.714;2022-11-12T13:45:33;15.77;;;14.17;;
75230;SDS011;63814;50.118;8.714;2022-11-12T13:48:05;18.20;;;14.07;;
75230;SDS011;63814;50.118;8.714;2022-11-12T13:50:32;15.93;;;14.23;;
75230;SDS011;63814;50.118;8.714;2022-11-12T13:53:00;15.33;;;13.83;;
75230;SDS011;63814;50.118;8.714;2022-11-12T13:55:27;17.17;;;15.30;;
75230;SDS011;63814;50.118;8.714;2022-11-12T13:57:53;18.20;;;16.30;;
75230;SDS011;63814;50.118;8.714;2022-11-12T14:00:24;17.10;;;15.30;;
75230;SDS011;63814;50.118;8.714;2022-11-12T14:02:53;15.23;;;13.63;;
75230;SDS011;63814;50.118;8.714;2022-11-12T14:05:23;13.97;;;12.47;;
75230;SDS011;63814;50.118;8.714;2022-11-12T14:07:54;13.80;;;12.50;;
75230;SDS011;63814;50.118;8.714;2022-11-12T14:10:36;12.00;;;10.90;;
75230;SDS011;63814;50.118;8.714;2022-11-12T14:13:12;14.10;;;12.20;;
75230;SDS011;63814;50.118;8.714;2022-11-12T14:16:12;12.80;;;11.60;;
75230;SDS011;63814;50.118;8.714;2022-11-12T14:19:05;12.97;;;11.57;;
75230;SDS011;63814;50.118;8.714;2022-11-12T14:21:56;15.03;;;13.60;;
75230;SDS011;63814;50.118;8.714;2022-11-12T14:24:25;15.13;;;13.60;;
75230;SDS011;63814;50.118;8.714;2022-11-12T14:26:51;15.83;;;14.23;;
75230;SDS011;63814;50.118;8.714;2022-11-12T14:29:18;11.27;;;10.17;;
75230;SDS011;63814;50.118;8.714;2022-11-12T14:31:44;14.50;;;13.00;;
75230;SDS011;63814;50.118;8.714;2022-11-12T14:34:27;14.23;;;12.83;;
75230;SDS011;63814;50.118;8.714;2022-11-12T14:36:55;13.60;;;12.30;;
75230;SDS011;63814;50.118;8.714;2022-11-12T14:39:21;14.50;;;12.77;;
75230;SDS011;63814;50.118;8.714;2022-11-12T14:41:50;14.17;;;12.23;;
75230;SDS011;63814;50.118;8.714;2022-11-12T14:44:19;16.10;;;13.07;;
75230;SDS011;63814;50.118;8.714;2022-11-12T14:46:48;14.63;;;13.13;;
75230;SDS011;63814;50.118;8.714;2022-11-12T14:49:19;12.87;;;11.57;;
75230;SDS011;63814;50.118;8.714;2022-11-12T14:51:53;14.53;;;12.93;;